sensor_id;sensor_type;location;lat;lon;timestamp;temperature;humidity
51595;DHT22;37677;53.254;6.594;2022-10-04T00:02:22;12.70;1.00
51595;DHT22;37677;53.254;6.594;2022-10-04T00:04:56;12.80;1.00
51595;DHT22;37677;53.254;6.594;2022-10-04T00:07:28;12.80;1.00
51595;DHT22;37677;53.254;6.594;2022-10-04T00:10:23;12.70;1.00
51595;DHT22;37677;53.254;6.594;2022-10-04T00:12:56;12.80;1.00
51595;DHT22;37677;53.254;6.594;2022-10-04T00:15:32;12.70;1.00
51595;DHT22;37677;53.254;6.594;2022-10-04T00:23:25;12.70;1.00
51595;DHT22;37677;53.254;6.594;2022-10-04T00:33:38;12.80;1.00
51595;DHT22;37677;53.254;6.594;2022-10-04T00:42:17;12.70;1.00
51595;DHT22;37677;53.254;6.594;2022-10-04T00:44:56;12.70;1.00
51595;DHT22;37677;53.254;6.594;2022-10-04T00:47:39;12.80;1.00
51595;DHT22;37677;53.254;6.594;2022-10-04T00:52:50;12.80;1.00
51595;DHT22;37677;53.254;6.594;2022-10-04T00:55:30;12.80;1.00
51595;DHT22;37677;53.254;6.594;2022-10-04T00:58:01;12.80;1.00
51595;DHT22;37677;53.254;6.594;2022-10-04T01:00:30;12.80;1.00
51595;DHT22;37677;53.254;6.594;2022-10-04T01:03:09;12.80;1.00
51595;DHT22;37677;53.254;6.594;2022-10-04T01:05:39;12.80;1.00
51595;DHT22;37677;53.254;6.594;2022-10-04T01:08:12;12.80;1.00
51595;DHT22;37677;53.254;6.594;2022-10-04T01:18:36;12.80;1.00
51595;DHT22;37677;53.254;6.594;2022-10-04T01:23:35;12.80;1.00
51595;DHT22;37677;53.254;6.594;2022-10-04T01:26:04;12.80;1.00
51595;DHT22;37677;53.254;6.594;2022-10-04T01:28:31;12.80;1.00
51595;DHT22;37677;53.254;6.594;2022-10-04T01:30:57;12.80;1.00
51595;DHT22;37677;53.254;6.594;2022-10-04T01:33:23;12.80;1.00
51595;DHT22;37677;53.254;6.594;2022-10-04T01:35:49;12.80;1.00
51595;DHT22;37677;53.254;6.594;2022-10-04T01:38:15;12.80;1.00
51595;DHT22;37677;53.254;6.594;2022-10-04T01:40:49;12.80;1.00
51595;DHT22;37677;53.254;6.594;2022-10-04T01:43:21;12.80;1.00
51595;DHT22;37677;53.254;6.594;2022-10-04T01:45:52;12.80;1.00
51595;DHT22;37677;53.254;6.594;2022-10-04T01:48:26;12.80;1.00
51595;DHT22;37677;53.254;6.594;2022-10-04T01:51:00;12.80;1.00
51595;DHT22;37677;53.254;6.594;2022-10-04T01:53:43;12.80;1.00
51595;DHT22;37677;53.254;6.594;2022-10-04T01:56:16;12.80;1.00
51595;DHT22;37677;53.254;6.594;2022-10-04T01:59:02;12.80;1.00
51595;DHT22;37677;53.254;6.594;2022-10-04T02:01:33;12.80;1.00
51595;DHT22;37677;53.254;6.594;2022-10-04T02:04:08;12.80;1.00
51595;DHT22;37677;53.254;6.594;2022-10-04T02:06:40;12.80;1.00
51595;DHT22;37677;53.254;6.594;2022-10-04T02:09:34;12.80;1.00
51595;DHT22;37677;53.254;6.594;2022-10-04T02:12:01;12.80;1.00
51595;DHT22;37677;53.254;6.594;2022-10-04T02:14:30;12.80;1.00
51595;DHT22;37677;53.254;6.594;2022-10-04T02:17:02;12.80;1.00
51595;DHT22;37677;53.254;6.594;2022-10-04T02:19:35;12.80;1.00
51595;DHT22;37677;53.254;6.594;2022-10-04T02:22:03;12.80;1.00
51595;DHT22;37677;53.254;6.594;2022-10-04T02:24:36;12.80;1.00
51595;DHT22;37677;53.254;6.594;2022-10-04T02:27:02;12.80;1.00
51595;DHT22;37677;53.254;6.594;2022-10-04T02:29:28;12.80;1.00
51595;DHT22;37677;53.254;6.594;2022-10-04T02:31:53;12.80;1.00
51595;DHT22;37677;53.254;6.594;2022-10-04T02:34:39;12.80;1.00
51595;DHT22;37677;53.254;6.594;2022-10-04T02:37:06;12.80;1.00
51595;DHT22;37677;53.254;6.594;2022-10-04T02:40:02;12.70;1.00
51595;DHT22;37677;53.254;6.594;2022-10-04T02:43:06;12.70;1.00
51595;DHT22;37677;53.254;6.594;2022-10-04T02:45:50;12.70;1.00
51595;DHT22;37677;53.254;6.594;2022-10-04T02:48:47;12.70;1.00
51595;DHT22;37677;53.254;6.594;2022-10-04T02:51:22;12.70;1.00
51595;DHT22;37677;53.254;6.594;2022-10-04T02:56:41;12.70;1.00
51595;DHT22;37677;53.254;6.594;2022-10-04T02:59:07;12.70;1.00
51595;DHT22;37677;53.254;6.594;2022-10-04T03:04:15;12.70;1.00
51595;DHT22;37677;53.254;6.594;2022-10-04T03:06:46;12.60;1.00
51595;DHT22;37677;53.254;6.594;2022-10-04T03:09:13;12.70;1.00
51595;DHT22;37677;53.254;6.594;2022-10-04T03:11:39;12.70;1.00
51595;DHT22;37677;53.254;6.594;2022-10-04T03:14:11;12.70;1.00
51595;DHT22;37677;53.254;6.594;2022-10-04T03:16:43;12.70;1.00
51595;DHT22;37677;53.254;6.594;2022-10-04T03:19:11;12.70;1.00
51595;DHT22;37677;53.254;6.594;2022-10-04T03:21:39;12.70;1.00
51595;DHT22;37677;53.254;6.594;2022-10-04T03:24:07;12.60;1.00
51595;DHT22;37677;53.254;6.594;2022-10-04T03:26:59;12.60;1.00
51595;DHT22;37677;53.254;6.594;2022-10-04T03:29:27;12.50;1.00
51595;DHT22;37677;53.254;6.594;2022-10-04T03:31:55;12.60;1.00
51595;DHT22;37677;53.254;6.594;2022-10-04T03:34:27;12.60;1.00
51595;DHT22;37677;53.254;6.594;2022-10-04T03:36:57;12.50;1.00
51595;DHT22;37677;53.254;6.594;2022-10-04T03:39:29;12.50;1.00
51595;DHT22;37677;53.254;6.594;2022-10-04T03:41:57;12.50;1.00
51595;DHT22;37677;53.254;6.594;2022-10-04T03:44:23;12.50;1.00
51595;DHT22;37677;53.254;6.594;2022-10-04T03:46:49;12.50;1.00
51595;DHT22;37677;53.254;6.594;2022-10-04T03:49:22;12.50;1.00
51595;DHT22;37677;53.254;6.594;2022-10-04T03:51:51;12.50;1.00
51595;DHT22;37677;53.254;6.594;2022-10-04T03:54:20;12.50;1.00
51595;DHT22;37677;53.254;6.594;2022-10-04T03:56:50;12.50;1.00
51595;DHT22;37677;53.254;6.594;2022-10-04T03:59:17;12.50;1.00
51595;DHT22;37677;53.254;6.594;2022-10-04T04:01:47;12.40;1.00
51595;DHT22;37677;53.254;6.594;2022-10-04T04:27:16;12.60;1.00
51595;DHT22;37677;53.254;6.594;2022-10-04T04:38:13;12.50;1.00
51595;DHT22;37677;53.254;6.594;2022-10-04T04:43:16;12.40;1.00
51595;DHT22;37677;53.254;6.594;2022-10-04T04:45:44;12.50;1.00
51595;DHT22;37677;53.254;6.594;2022-10-04T04:48:14;12.40;1.00
51595;DHT22;37677;53.254;6.594;2022-10-04T04:50:40;12.40;1.00
51595;DHT22;37677;53.254;6.594;2022-10-04T04:53:13;12.40;1.00
51595;DHT22;37677;53.254;6.594;2022-10-04T04:55:53;12.30;1.00
51595;DHT22;37677;53.254;6.594;2022-10-04T04:58:49;12.30;1.00
51595;DHT22;37677;53.254;6.594;2022-10-04T05:01:30;12.40;1.00
51595;DHT22;37677;53.254;6.594;2022-10-04T05:06:41;12.30;1.00
51595;DHT22;37677;53.254;6.594;2022-10-04T05:09:26;11.90;1.00
51595;DHT22;37677;53.254;6.594;2022-10-04T05:11:56;12.40;1.00
51595;DHT22;37677;53.254;6.594;2022-10-04T05:14:24;12.40;1.00
51595;DHT22;37677;53.254;6.594;2022-10-04T05:16:51;12.10;1.00
51595;DHT22;37677;53.254;6.594;2022-10-04T05:19:27;12.20;1.00
51595;DHT22;37677;53.254;6.594;2022-10-04T05:21:54;12.20;1.00
51595;DHT22;37677;53.254;6.594;2022-10-04T05:24:32;12.40;1.00
51595;DHT22;37677;53.254;6.594;2022-10-04T05:27:04;12.30;1.00
51595;DHT22;37677;53.254;6.594;2022-10-04T05:29:35;12.40;1.00
51595;DHT22;37677;53.254;6.594;2022-10-04T05:32:22;12.20;1.00
51595;DHT22;37677;53.254;6.594;2022-10-04T05:34:50;12.00;1.00
51595;DHT22;37677;53.254;6.594;2022-10-04T05:37:44;12.00;1.00
51595;DHT22;37677;53.254;6.594;2022-10-04T05:40:26;11.80;1.00
51595;DHT22;37677;53.254;6.594;2022-10-04T05:42:54;11.90;1.00
51595;DHT22;37677;53.254;6.594;2022-10-04T05:45:25;12.20;1.00
51595;DHT22;37677;53.254;6.594;2022-10-04T05:47:53;11.90;1.00
51595;DHT22;37677;53.254;6.594;2022-10-04T05:50:35;11.90;1.00
51595;DHT22;37677;53.254;6.594;2022-10-04T05:59:10;11.90;1.00
51595;DHT22;37677;53.254;6.594;2022-10-04T06:04:03;11.90;1.00
51595;DHT22;37677;53.254;6.594;2022-10-04T06:06:47;11.70;1.00
51595;DHT22;37677;53.254;6.594;2022-10-04T06:20:37;12.10;1.00
51595;DHT22;37677;53.254;6.594;2022-10-04T06:23:18;11.90;1.00
51595;DHT22;37677;53.254;6.594;2022-10-04T06:25:50;11.90;1.00
51595;DHT22;37677;53.254;6.594;2022-10-04T06:28:28;12.00;1.00
51595;DHT22;37677;53.254;6.594;2022-10-04T06:42:32;11.90;1.00
51595;DHT22;37677;53.254;6.594;2022-10-04T06:47:51;12.00;1.00
51595;DHT22;37677;53.254;6.594;2022-10-04T06:50:24;11.90;1.00
51595;DHT22;37677;53.254;6.594;2022-10-04T06:53:01;12.70;1.00
51595;DHT22;37677;53.254;6.594;2022-10-04T06:55:41;12.10;1.00
51595;DHT22;37677;53.254;6.594;2022-10-04T07:03:28;12.20;1.00
51595;DHT22;37677;53.254;6.594;2022-10-04T07:06:04;12.50;1.00
51595;DHT22;37677;53.254;6.594;2022-10-04T07:13:42;12.70;1.00
51595;DHT22;37677;53.254;6.594;2022-10-04T07:27:43;12.80;1.00
51595;DHT22;37677;53.254;6.594;2022-10-04T07:30:15;12.80;1.00
51595;DHT22;37677;53.254;6.594;2022-10-04T07:32:46;12.70;1.00
51595;DHT22;37677;53.254;6.594;2022-10-04T07:35:42;12.80;1.00
51595;DHT22;37677;53.254;6.594;2022-10-04T07:41:58;12.90;1.00
51595;DHT22;37677;53.254;6.594;2022-10-04T07:43:59;13.10;1.00
51595;DHT22;37677;53.254;6.594;2022-10-04T07:46:43;13.40;1.00
51595;DHT22;37677;53.254;6.594;2022-10-04T07:49:15;13.50;1.00
51595;DHT22;37677;53.254;6.594;2022-10-04T07:54:46;13.50;99.90
51595;DHT22;37677;53.254;6.594;2022-10-04T08:00:01;13.50;99.90
51595;DHT22;37677;53.254;6.594;2022-10-04T08:02:54;13.50;99.90
51595;DHT22;37677;53.254;6.594;2022-10-04T08:05:32;13.50;99.90
51595;DHT22;37677;53.254;6.594;2022-10-04T08:08:28;13.50;99.90
51595;DHT22;37677;53.254;6.594;2022-10-04T08:19:29;13.50;1.00
51595;DHT22;37677;53.254;6.594;2022-10-04T08:31:06;13.50;1.00
51595;DHT22;37677;53.254;6.594;2022-10-04T08:38:58;14.10;1.00
51595;DHT22;37677;53.254;6.594;2022-10-04T08:44:38;14.40;99.90
51595;DHT22;37677;53.254;6.594;2022-10-04T08:47:37;14.50;99.90
51595;DHT22;37677;53.254;6.594;2022-10-04T08:52:55;14.70;99.90
51595;DHT22;37677;53.254;6.594;2022-10-04T09:15:34;15.80;1.00
51595;DHT22;37677;53.254;6.594;2022-10-04T09:26:21;16.00;99.90
51595;DHT22;37677;53.254;6.594;2022-10-04T09:37:16;15.80;99.90
51595;DHT22;37677;53.254;6.594;2022-10-04T09:42:39;15.80;1.00
51595;DHT22;37677;53.254;6.594;2022-10-04T09:59:15;16.10;99.90
51595;DHT22;37677;53.254;6.594;2022-10-04T10:01:29;16.40;1.00
51595;DHT22;37677;53.254;6.594;2022-10-04T10:15:49;16.60;99.90
51595;DHT22;37677;53.254;6.594;2022-10-04T10:18:25;16.90;99.90
51595;DHT22;37677;53.254;6.594;2022-10-04T10:26:50;17.30;1.00
51595;DHT22;37677;53.254;6.594;2022-10-04T10:32:18;17.40;1.00
51595;DHT22;37677;53.254;6.594;2022-10-04T10:40:38;18.30;1.00
51595;DHT22;37677;53.254;6.594;2022-10-04T10:46:02;19.40;1.00
51595;DHT22;37677;53.254;6.594;2022-10-04T10:51:16;20.00;99.90
51595;DHT22;37677;53.254;6.594;2022-10-04T11:28:03;18.20;96.60
51595;DHT22;37677;53.254;6.594;2022-10-04T11:30:25;18.20;99.90
51595;DHT22;37677;53.254;6.594;2022-10-04T11:36:11;18.50;99.90
51595;DHT22;37677;53.254;6.594;2022-10-04T11:44:19;18.40;91.70
51595;DHT22;37677;53.254;6.594;2022-10-04T11:55:50;18.00;99.90
51595;DHT22;37677;53.254;6.594;2022-10-04T11:58:48;17.80;77.00
51595;DHT22;37677;53.254;6.594;2022-10-04T12:02:12;17.80;99.90
51595;DHT22;37677;53.254;6.594;2022-10-04T12:10:03;17.80;99.90
51595;DHT22;37677;53.254;6.594;2022-10-04T12:21:37;17.80;99.90
51595;DHT22;37677;53.254;6.594;2022-10-04T12:24:45;17.70;99.90
51595;DHT22;37677;53.254;6.594;2022-10-04T12:43:53;17.80;99.90
51595;DHT22;37677;53.254;6.594;2022-10-04T12:52:15;17.70;99.90
51595;DHT22;37677;53.254;6.594;2022-10-04T12:54:55;17.80;99.90
51595;DHT22;37677;53.254;6.594;2022-10-04T12:57:46;17.80;99.90
51595;DHT22;37677;53.254;6.594;2022-10-04T13:00:23;17.80;99.90
51595;DHT22;37677;53.254;6.594;2022-10-04T13:05:48;17.80;99.90
51595;DHT22;37677;53.254;6.594;2022-10-04T13:08:38;17.80;99.90
51595;DHT22;37677;53.254;6.594;2022-10-04T13:23:09;17.80;99.90
51595;DHT22;37677;53.254;6.594;2022-10-04T13:26:11;17.80;99.90
51595;DHT22;37677;53.254;6.594;2022-10-04T13:28:57;17.90;99.90
51595;DHT22;37677;53.254;6.594;2022-10-04T13:39:50;17.90;99.90
51595;DHT22;37677;53.254;6.594;2022-10-04T13:48:03;17.80;99.90
51595;DHT22;37677;53.254;6.594;2022-10-04T13:59:22;17.70;99.90
51595;DHT22;37677;53.254;6.594;2022-10-04T14:11:06;17.60;99.90
51595;DHT22;37677;53.254;6.594;2022-10-04T14:16:49;17.60;99.90
51595;DHT22;37677;53.254;6.594;2022-10-04T14:28:33;17.60;99.90
51595;DHT22;37677;53.254;6.594;2022-10-04T14:43:14;17.40;1.00
51595;DHT22;37677;53.254;6.594;2022-10-04T14:46:12;17.40;1.00
51595;DHT22;37677;53.254;6.594;2022-10-04T14:54:03;17.20;1.00
51595;DHT22;37677;53.254;6.594;2022-10-04T15:02:12;17.10;1.00
51595;DHT22;37677;53.254;6.594;2022-10-04T15:07:51;17.10;1.00
51595;DHT22;37677;53.254;6.594;2022-10-04T15:10:23;17.10;1.00
51595;DHT22;37677;53.254;6.594;2022-10-04T15:13:33;17.10;1.00
51595;DHT22;37677;53.254;6.594;2022-10-04T15:16:21;17.00;1.00
51595;DHT22;37677;53.254;6.594;2022-10-04T15:24:42;16.90;1.00
51595;DHT22;37677;53.254;6.594;2022-10-04T15:33:24;16.90;64.60
51595;DHT22;37677;53.254;6.594;2022-10-04T15:38:29;16.90;98.70
51595;DHT22;37677;53.254;6.594;2022-10-04T15:41:18;16.90;90.50
51595;DHT22;37677;53.254;6.594;2022-10-04T16:01:03;16.60;1.00
51595;DHT22;37677;53.254;6.594;2022-10-04T16:03:45;16.60;1.00
51595;DHT22;37677;53.254;6.594;2022-10-04T16:06:29;16.60;1.00
51595;DHT22;37677;53.254;6.594;2022-10-04T16:17:21;16.50;1.00
51595;DHT22;37677;53.254;6.594;2022-10-04T16:22:29;16.50;1.00
51595;DHT22;37677;53.254;6.594;2022-10-04T16:30:28;16.50;1.00
51595;DHT22;37677;53.254;6.594;2022-10-04T16:33:28;16.40;1.00
51595;DHT22;37677;53.254;6.594;2022-10-04T16:36:04;16.40;34.60
51595;DHT22;37677;53.254;6.594;2022-10-04T16:38:36;16.40;4.40
51595;DHT22;37677;53.254;6.594;2022-10-04T16:41:56;16.40;2.40
51595;DHT22;37677;53.254;6.594;2022-10-04T16:44:37;16.40;1.00
51595;DHT22;37677;53.254;6.594;2022-10-04T16:47:50;16.30;1.00
51595;DHT22;37677;53.254;6.594;2022-10-04T16:50:51;16.30;1.00
51595;DHT22;37677;53.254;6.594;2022-10-04T16:56:11;16.20;38.60
51595;DHT22;37677;53.254;6.594;2022-10-04T17:04:19;16.20;39.70
51595;DHT22;37677;53.254;6.594;2022-10-04T17:12:23;16.20;98.00
51595;DHT22;37677;53.254;6.594;2022-10-04T17:23:19;16.10;99.90
51595;DHT22;37677;53.254;6.594;2022-10-04T17:28:43;16.10;99.90
51595;DHT22;37677;53.254;6.594;2022-10-04T17:31:26;16.10;99.90
51595;DHT22;37677;53.254;6.594;2022-10-04T17:43:10;16.00;99.90
51595;DHT22;37677;53.254;6.594;2022-10-04T17:48:31;16.00;99.90
51595;DHT22;37677;53.254;6.594;2022-10-04T17:54:17;15.90;99.90
51595;DHT22;37677;53.254;6.594;2022-10-04T17:59:30;15.90;99.90
51595;DHT22;37677;53.254;6.594;2022-10-04T18:04:54;15.80;99.90
51595;DHT22;37677;53.254;6.594;2022-10-04T18:07:36;15.90;99.90
51595;DHT22;37677;53.254;6.594;2022-10-04T18:10:27;15.80;99.90
51595;DHT22;37677;53.254;6.594;2022-10-04T18:13:03;15.80;99.90
51595;DHT22;37677;53.254;6.594;2022-10-04T18:15:39;15.80;99.90
51595;DHT22;37677;53.254;6.594;2022-10-04T18:18:10;15.80;1.00
51595;DHT22;37677;53.254;6.594;2022-10-04T18:23:27;15.80;1.00
51595;DHT22;37677;53.254;6.594;2022-10-04T18:26:04;15.80;1.00
51595;DHT22;37677;53.254;6.594;2022-10-04T18:28:31;15.70;1.00
51595;DHT22;37677;53.254;6.594;2022-10-04T18:31:18;15.70;1.00
51595;DHT22;37677;53.254;6.594;2022-10-04T18:33:46;15.70;9.30
51595;DHT22;37677;53.254;6.594;2022-10-04T18:36:18;15.70;1.00
51595;DHT22;37677;53.254;6.594;2022-10-04T18:39:15;15.70;1.00
51595;DHT22;37677;53.254;6.594;2022-10-04T18:41:42;15.70;1.00
51595;DHT22;37677;53.254;6.594;2022-10-04T18:44:42;15.70;16.20
51595;DHT22;37677;53.254;6.594;2022-10-04T18:47:33;15.60;29.10
51595;DHT22;37677;53.254;6.594;2022-10-04T18:50:03;15.70;88.30
51595;DHT22;37677;53.254;6.594;2022-10-04T18:55:26;15.70;99.90
51595;DHT22;37677;53.254;6.594;2022-10-04T18:59:17;15.70;99.90
51595;DHT22;37677;53.254;6.594;2022-10-04T19:01:47;15.60;99.90
51595;DHT22;37677;53.254;6.594;2022-10-04T19:10:43;15.70;99.90
51595;DHT22;37677;53.254;6.594;2022-10-04T19:16:14;15.70;99.90
51595;DHT22;37677;53.254;6.594;2022-10-04T19:22:00;15.70;99.90
51595;DHT22;37677;53.254;6.594;2022-10-04T19:24:35;15.70;1.00
51595;DHT22;37677;53.254;6.594;2022-10-04T19:27:22;15.70;1.00
51595;DHT22;37677;53.254;6.594;2022-10-04T19:30:18;15.80;1.00
51595;DHT22;37677;53.254;6.594;2022-10-04T19:35:33;15.70;1.00
51595;DHT22;37677;53.254;6.594;2022-10-04T19:48:57;15.80;99.90
51595;DHT22;37677;53.254;6.594;2022-10-04T19:51:58;15.80;99.90
51595;DHT22;37677;53.254;6.594;2022-10-04T19:54:34;15.70;14.90
51595;DHT22;37677;53.254;6.594;2022-10-04T19:57:10;15.70;79.30
51595;DHT22;37677;53.254;6.594;2022-10-04T19:59:42;15.70;73.50
51595;DHT22;37677;53.254;6.594;2022-10-04T20:02:11;15.70;99.90
51595;DHT22;37677;53.254;6.594;2022-10-04T20:04:39;15.70;99.90
51595;DHT22;37677;53.254;6.594;2022-10-04T20:07:20;15.70;99.90
51595;DHT22;37677;53.254;6.594;2022-10-04T20:10:20;15.70;99.90
51595;DHT22;37677;53.254;6.594;2022-10-04T20:13:19;15.70;1.00
51595;DHT22;37677;53.254;6.594;2022-10-04T20:15:57;15.70;2.60
51595;DHT22;37677;53.254;6.594;2022-10-04T20:26:08;15.70;99.90
51595;DHT22;37677;53.254;6.594;2022-10-04T20:33:50;15.70;99.90
51595;DHT22;37677;53.254;6.594;2022-10-04T20:36:48;15.70;25.00
51595;DHT22;37677;53.254;6.594;2022-10-04T20:47:45;15.60;99.90
51595;DHT22;37677;53.254;6.594;2022-10-04T20:50:30;15.60;1.00
51595;DHT22;37677;53.254;6.594;2022-10-04T20:53:03;15.60;1.00
51595;DHT22;37677;53.254;6.594;2022-10-04T20:55:35;15.70;17.80
51595;DHT22;37677;53.254;6.594;2022-10-04T20:58:03;15.60;99.90
51595;DHT22;37677;53.254;6.594;2022-10-04T21:00:32;15.70;93.90
51595;DHT22;37677;53.254;6.594;2022-10-04T21:03:16;15.70;99.90
51595;DHT22;37677;53.254;6.594;2022-10-04T21:05:42;15.60;99.90
51595;DHT22;37677;53.254;6.594;2022-10-04T21:08:23;15.60;1.00
51595;DHT22;37677;53.254;6.594;2022-10-04T21:16:08;15.60;99.90
51595;DHT22;37677;53.254;6.594;2022-10-04T21:18:34;15.50;99.90
51595;DHT22;37677;53.254;6.594;2022-10-04T21:21:00;15.60;99.90
51595;DHT22;37677;53.254;6.594;2022-10-04T21:23:33;15.60;99.90
51595;DHT22;37677;53.254;6.594;2022-10-04T21:26:22;15.60;99.90
51595;DHT22;37677;53.254;6.594;2022-10-04T21:28:52;15.50;99.90
51595;DHT22;37677;53.254;6.594;2022-10-04T21:31:18;15.50;99.90
51595;DHT22;37677;53.254;6.594;2022-10-04T21:33:43;15.50;1.00
51595;DHT22;37677;53.254;6.594;2022-10-04T21:36:09;15.50;1.00
51595;DHT22;37677;53.254;6.594;2022-10-04T21:38:35;15.60;1.00
51595;DHT22;37677;53.254;6.594;2022-10-04T21:41:00;15.50;1.00
51595;DHT22;37677;53.254;6.594;2022-10-04T21:43:26;15.50;1.00
51595;DHT22;37677;53.254;6.594;2022-10-04T21:45:52;15.50;1.00
51595;DHT22;37677;53.254;6.594;2022-10-04T21:48:18;15.50;1.00
51595;DHT22;37677;53.254;6.594;2022-10-04T21:50:46;15.50;1.00
51595;DHT22;37677;53.254;6.594;2022-10-04T21:53:13;15.50;2.60
51595;DHT22;37677;53.254;6.594;2022-10-04T21:55:38;15.50;15.40
51595;DHT22;37677;53.254;6.594;2022-10-04T21:58:04;15.50;38.10
51595;DHT22;37677;53.254;6.594;2022-10-04T22:00:30;15.50;23.90
51595;DHT22;37677;53.254;6.594;2022-10-04T22:02:55;15.50;99.90
51595;DHT22;37677;53.254;6.594;2022-10-04T22:05:21;15.50;98.00
51595;DHT22;37677;53.254;6.594;2022-10-04T22:07:46;15.50;80.30
51595;DHT22;37677;53.254;6.594;2022-10-04T22:10:12;15.50;99.90
51595;DHT22;37677;53.254;6.594;2022-10-04T22:12:38;15.50;99.90
51595;DHT22;37677;53.254;6.594;2022-10-04T22:15:04;15.50;99.90
51595;DHT22;37677;53.254;6.594;2022-10-04T22:17:30;15.50;99.90
51595;DHT22;37677;53.254;6.594;2022-10-04T22:19:55;15.50;99.90
51595;DHT22;37677;53.254;6.594;2022-10-04T22:22:21;15.50;99.90
51595;DHT22;37677;53.254;6.594;2022-10-04T22:24:47;15.50;99.90
51595;DHT22;37677;53.254;6.594;2022-10-04T22:27:17;15.50;99.90
51595;DHT22;37677;53.254;6.594;2022-10-04T22:29:44;15.50;99.90
51595;DHT22;37677;53.254;6.594;2022-10-04T22:32:12;15.50;99.90
51595;DHT22;37677;53.254;6.594;2022-10-04T22:34:39;16.00;99.90
51595;DHT22;37677;53.254;6.594;2022-10-04T22:37:09;15.50;99.90
51595;DHT22;37677;53.254;6.594;2022-10-04T22:39:35;15.50;99.90
51595;DHT22;37677;53.254;6.594;2022-10-04T22:42:01;15.50;99.90
51595;DHT22;37677;53.254;6.594;2022-10-04T22:44:35;15.50;99.90
51595;DHT22;37677;53.254;6.594;2022-10-04T22:47:02;15.50;99.90
51595;DHT22;37677;53.254;6.594;2022-10-04T22:49:33;15.50;99.90
51595;DHT22;37677;53.254;6.594;2022-10-04T22:52:02;15.50;99.90
51595;DHT22;37677;53.254;6.594;2022-10-04T22:54:32;15.50;99.90
51595;DHT22;37677;53.254;6.594;2022-10-04T22:56:58;15.60;99.90
51595;DHT22;37677;53.254;6.594;2022-10-04T22:59:42;15.60;99.90
51595;DHT22;37677;53.254;6.594;2022-10-04T23:02:22;15.60;99.90
51595;DHT22;37677;53.254;6.594;2022-10-04T23:04:53;15.60;99.90
51595;DHT22;37677;53.254;6.594;2022-10-04T23:07:19;15.60;99.90
51595;DHT22;37677;53.254;6.594;2022-10-04T23:09:45;15.60;99.90
51595;DHT22;37677;53.254;6.594;2022-10-04T23:12:10;15.60;99.90
51595;DHT22;37677;53.254;6.594;2022-10-04T23:14:37;15.60;99.90
51595;DHT22;37677;53.254;6.594;2022-10-04T23:17:23;15.60;99.90
51595;DHT22;37677;53.254;6.594;2022-10-04T23:20:00;15.60;99.90
51595;DHT22;37677;53.254;6.594;2022-10-04T23:22:30;15.60;99.90
51595;DHT22;37677;53.254;6.594;2022-10-04T23:24:56;15.60;99.90
51595;DHT22;37677;53.254;6.594;2022-10-04T23:27:22;15.60;99.90
51595;DHT22;37677;53.254;6.594;2022-10-04T23:29:59;15.70;99.90
51595;DHT22;37677;53.254;6.594;2022-10-04T23:32:26;15.60;99.90
51595;DHT22;37677;53.254;6.594;2022-10-04T23:34:51;15.60;99.90
51595;DHT22;37677;53.254;6.594;2022-10-04T23:37:35;15.60;99.90
51595;DHT22;37677;53.254;6.594;2022-10-04T23:40:01;15.60;99.90
51595;DHT22;37677;53.254;6.594;2022-10-04T23:42:28;15.60;99.90
51595;DHT22;37677;53.254;6.594;2022-10-04T23:44:57;15.60;99.90
51595;DHT22;37677;53.254;6.594;2022-10-04T23:47:29;15.60;99.90
51595;DHT22;37677;53.254;6.594;2022-10-04T23:49:56;15.60;99.90
51595;DHT22;37677;53.254;6.594;2022-10-04T23:52:27;15.60;99.90
51595;DHT22;37677;53.254;6.594;2022-10-04T23:54:54;15.60;99.90
51595;DHT22;37677;53.254;6.594;2022-10-04T23:57:22;15.60;99.90
51595;DHT22;37677;53.254;6.594;2022-10-04T23:59:49;15.50;99.90
